createdAt,value
2019-06-07T00:00:04.026Z,0.00
2019-06-07T00:01:03.578Z,0.00
2019-06-07T00:02:03.619Z,0.00
2019-06-07T00:03:03.650Z,0.00
2019-06-07T00:04:03.685Z,0.00
2019-06-07T00:05:03.720Z,0.00
2019-06-07T00:06:03.819Z,0.00
2019-06-07T00:07:04.087Z,0.00
2019-06-07T00:08:07.787Z,0.00
2019-06-07T00:09:03.863Z,0.00
2019-06-07T00:10:03.896Z,0.00
2019-06-07T00:11:03.955Z,0.00
2019-06-07T00:12:03.981Z,0.00
2019-06-07T00:13:04.007Z,0.00
2019-06-07T00:14:04.372Z,0.00
2019-06-07T00:15:04.085Z,0.00
2019-06-07T00:16:04.064Z,0.00
2019-06-07T00:17:04.142Z,0.00
2019-06-07T00:18:04.175Z,0.00
2019-06-07T00:19:04.211Z,0.00
2019-06-07T00:20:04.201Z,0.00
2019-06-07T00:21:04.582Z,0.00
2019-06-07T00:22:17.526Z,0.00
2019-06-07T00:23:04.350Z,0.00
2019-06-07T00:24:04.375Z,0.00
2019-06-07T00:25:04.438Z,0.00
2019-06-07T00:26:04.465Z,0.00
2019-06-07T00:27:04.493Z,0.00
2019-06-07T00:28:04.829Z,0.00
2019-06-07T00:29:04.552Z,0.00
2019-06-07T00:30:29.815Z,0.00
2019-06-07T00:31:04.573Z,0.00
2019-06-07T00:32:04.664Z,0.00
2019-06-07T00:33:04.713Z,0.00
2019-06-07T00:34:04.745Z,0.00
2019-06-07T00:35:05.080Z,0.00
2019-06-07T00:36:04.807Z,0.00
2019-06-07T00:37:04.831Z,0.00
2019-06-07T00:38:04.889Z,0.00
2019-06-07T00:39:04.917Z,0.00
2019-06-07T00:40:13.958Z,0.00
2019-06-07T00:41:04.976Z,0.00
2019-06-07T00:42:05.315Z,0.00
2019-06-07T00:43:05.108Z,0.00
2019-06-07T00:44:05.088Z,0.00
2019-06-07T00:45:05.115Z,0.00
2019-06-07T00:46:05.157Z,0.00
2019-06-07T00:47:05.188Z,0.00
2019-06-07T00:48:05.311Z,0.00
2019-06-07T00:49:05.551Z,0.00
2019-06-07T00:50:05.287Z,0.00
2019-06-07T00:51:05.315Z,0.00
2019-06-07T00:52:05.358Z,0.00
2019-06-07T00:53:15.439Z,0.00
2019-06-07T00:54:05.423Z,0.00
2019-06-07T00:55:05.757Z,0.00
2019-06-07T00:56:05.495Z,0.00
2019-06-07T00:57:05.524Z,0.00
2019-06-07T00:58:05.570Z,0.00
2019-06-07T00:59:11.265Z,0.00
2019-06-07T01:00:05.635Z,0.00
2019-06-07T01:01:05.972Z,0.00
2019-06-07T01:02:05.714Z,0.00
2019-06-07T01:03:05.734Z,0.00
2019-06-07T01:04:05.766Z,0.00
2019-06-07T01:05:05.822Z,0.00
2019-06-07T01:06:05.844Z,0.00
2019-06-07T01:07:06.168Z,0.00
2019-06-07T01:08:05.906Z,0.00
2019-06-07T01:09:05.951Z,0.00
2019-06-07T01:10:05.993Z,0.00
2019-06-07T01:11:06.034Z,0.00
2019-06-07T01:12:06.047Z,0.00
2019-06-07T01:13:06.082Z,0.00
2019-06-07T01:14:06.418Z,0.00
2019-06-07T01:15:06.146Z,0.00
2019-06-07T01:16:06.182Z,0.00
2019-06-07T01:17:22.751Z,0.00
2019-06-07T01:18:37.716Z,0.00
2019-06-07T01:19:06.309Z,0.00
2019-06-07T01:20:06.321Z,0.00
2019-06-07T01:21:06.649Z,0.00
2019-06-07T01:22:06.390Z,0.00
2019-06-07T01:23:51.940Z,0.00
2019-06-07T01:24:12.551Z,0.00
2019-06-07T01:25:06.495Z,0.00
2019-06-07T01:26:06.521Z,0.00
2019-06-07T01:27:06.660Z,0.00
2019-06-07T01:28:06.899Z,0.00
2019-06-07T01:29:06.629Z,0.00
2019-06-07T01:30:06.764Z,0.00
2019-06-07T01:31:06.705Z,0.00
2019-06-07T01:32:06.732Z,0.00
2019-06-07T01:33:06.775Z,0.00
2019-06-07T01:34:06.809Z,0.00
2019-06-07T01:35:07.170Z,0.00
2019-06-07T01:36:06.885Z,0.00
2019-06-07T01:37:06.917Z,0.00
2019-06-07T01:38:06.945Z,0.00
2019-06-07T01:39:06.978Z,0.00
2019-06-07T01:40:07.015Z,0.00
2019-06-07T01:41:07.141Z,0.00
2019-06-07T01:42:07.380Z,0.00
2019-06-07T01:43:07.109Z,0.00
2019-06-07T01:44:07.149Z,0.00
2019-06-07T01:45:07.491Z,0.00
2019-06-07T01:46:07.220Z,0.00
2019-06-07T01:47:07.264Z,0.00
2019-06-07T01:48:07.290Z,0.00
2019-06-07T01:49:07.614Z,0.00
2019-06-07T01:50:07.359Z,0.00
2019-06-07T01:51:07.387Z,0.00
2019-06-07T01:52:07.422Z,0.00
2019-06-07T01:53:07.457Z,0.00
2019-06-07T01:54:49.463Z,0.00
2019-06-07T01:55:07.527Z,0.00
2019-06-07T01:56:08.162Z,0.00
2019-06-07T01:57:07.600Z,0.00
2019-06-07T01:58:07.625Z,0.00
2019-06-07T01:59:07.665Z,0.00
2019-06-07T02:00:07.712Z,0.00
2019-06-07T02:01:07.747Z,0.00
2019-06-07T02:02:07.767Z,0.00
2019-06-07T02:03:08.099Z,0.00
2019-06-07T02:04:07.844Z,0.00
2019-06-07T02:05:07.879Z,0.00
2019-06-07T02:06:07.911Z,0.00
2019-06-07T02:07:07.941Z,0.00
2019-06-07T02:08:07.978Z,0.00
2019-06-07T02:09:08.012Z,0.00
2019-06-07T02:10:08.355Z,0.00
2019-06-07T02:11:08.080Z,0.00
2019-06-07T02:12:25.086Z,0.00
2019-06-07T02:13:08.144Z,0.00
2019-06-07T02:14:08.179Z,0.00
2019-06-07T02:15:08.212Z,0.00
2019-06-07T02:16:08.251Z,0.00
2019-06-07T02:17:08.582Z,0.00
2019-06-07T02:18:08.315Z,0.00
2019-06-07T02:19:08.461Z,0.00
2019-06-07T02:20:08.377Z,0.00
2019-06-07T02:21:08.416Z,0.00
2019-06-07T02:22:08.450Z,0.00
2019-06-07T02:23:08.487Z,0.00
2019-06-07T02:24:09.116Z,0.00
2019-06-07T02:26:08.605Z,0.00
2019-06-07T02:27:08.731Z,0.00
2019-06-07T02:28:27.610Z,0.00
2019-06-07T02:29:08.693Z,0.00
2019-06-07T02:31:11.107Z,0.00
2019-06-07T02:32:09.104Z,0.00
2019-06-07T02:33:08.830Z,0.00
2019-06-07T02:34:08.884Z,0.00
2019-06-07T02:35:08.898Z,0.00
2019-06-07T02:36:08.942Z,0.00
2019-06-07T02:37:08.965Z,0.00
2019-06-07T02:38:09.110Z,0.00
2019-06-07T02:39:09.333Z,0.00
2019-06-07T02:40:09.078Z,0.00
2019-06-07T02:41:09.102Z,0.00
2019-06-07T02:42:09.174Z,0.00
2019-06-07T02:43:09.175Z,0.00
2019-06-07T02:44:09.202Z,0.00
2019-06-07T02:45:10.686Z,0.00
2019-06-07T02:46:25.296Z,0.00
2019-06-07T02:48:09.343Z,0.00
2019-06-07T02:50:09.406Z,0.00
2019-06-07T02:51:09.444Z,0.00
2019-06-07T02:52:09.477Z,0.00
2019-06-07T02:53:09.813Z,0.00
2019-06-07T02:54:09.546Z,0.00
2019-06-07T02:55:09.724Z,0.00
2019-06-07T02:56:37.623Z,0.00
2019-06-07T02:59:09.717Z,0.00
2019-06-07T03:00:40.446Z,0.00
2019-06-07T03:01:10.140Z,0.00
2019-06-07T03:02:09.820Z,0.00
2019-06-07T03:03:09.851Z,0.00
2019-06-07T03:04:09.909Z,0.00
2019-06-07T03:05:09.928Z,0.00
2019-06-07T03:06:10.260Z,0.00
2019-06-07T03:07:10.021Z,0.00
2019-06-07T03:08:10.120Z,0.00
2019-06-07T03:09:10.050Z,0.00
2019-06-07T03:10:10.099Z,0.00
2019-06-07T03:11:10.121Z,0.00
2019-06-07T03:13:10.642Z,0.00
2019-06-07T03:14:10.221Z,0.00
2019-06-07T03:15:10.265Z,0.00
2019-06-07T03:16:10.354Z,0.00
2019-06-07T03:17:10.331Z,0.00
2019-06-07T03:18:10.466Z,0.00
2019-06-07T03:20:10.828Z,0.00
2019-06-07T03:21:10.465Z,0.00
2019-06-07T03:22:10.497Z,0.00
2019-06-07T03:23:10.540Z,0.00
2019-06-07T03:24:10.566Z,0.00
2019-06-07T03:25:10.604Z,0.00
2019-06-07T03:26:11.057Z,0.00
2019-06-07T03:27:33.982Z,0.00
2019-06-07T03:28:10.847Z,0.00
2019-06-07T03:30:36.143Z,0.00
2019-06-07T03:31:10.808Z,0.00
2019-06-07T03:32:11.140Z,0.00
2019-06-07T03:33:10.873Z,0.00
2019-06-07T03:34:10.906Z,0.00
2019-06-07T03:35:10.935Z,5.63
2019-06-07T03:36:23.323Z,5.63
2019-06-07T03:37:11.005Z,5.63
2019-06-07T03:38:11.059Z,5.63
2019-06-07T03:39:11.388Z,5.63
2019-06-07T03:40:11.116Z,5.63
2019-06-07T03:41:11.148Z,5.63
2019-06-07T03:42:11.878Z,5.63
2019-06-07T03:43:11.248Z,5.63
2019-06-07T03:44:11.246Z,5.63
2019-06-07T03:45:11.313Z,5.63
2019-06-07T03:46:11.628Z,5.63
2019-06-07T03:47:11.344Z,5.63
2019-06-07T03:48:11.390Z,5.63
2019-06-07T03:50:11.446Z,5.63
2019-06-07T03:51:23.973Z,5.63
2019-06-07T03:52:11.516Z,5.63
2019-06-07T03:53:11.889Z,5.63
2019-06-07T03:54:11.588Z,11.25
2019-06-07T03:55:11.619Z,11.25
2019-06-07T03:56:12.593Z,11.25
2019-06-07T03:57:11.682Z,11.25
2019-06-07T03:59:11.754Z,11.25
2019-06-07T04:00:11.799Z,11.25
2019-06-07T04:01:11.818Z,11.25
2019-06-07T04:02:11.856Z,11.25
2019-06-07T04:03:32.263Z,11.25
2019-06-07T04:04:11.926Z,11.25
2019-06-07T04:05:12.268Z,11.25
2019-06-07T04:06:11.986Z,16.88
2019-06-07T04:07:12.028Z,16.88
2019-06-07T04:08:12.066Z,16.88
2019-06-07T04:09:12.098Z,16.88
2019-06-07T04:10:12.130Z,16.88
2019-06-07T04:11:12.833Z,16.88
2019-06-07T04:12:12.189Z,16.88
2019-06-07T04:13:12.251Z,16.88
2019-06-07T04:14:12.265Z,16.88
2019-06-07T04:15:12.310Z,16.88
2019-06-07T04:16:12.382Z,16.88
2019-06-07T04:18:12.406Z,16.88
2019-06-07T04:19:12.436Z,16.88
2019-06-07T04:20:12.467Z,16.88
2019-06-07T04:21:12.502Z,22.50
2019-06-07T04:22:12.563Z,22.50
2019-06-07T04:23:27.890Z,22.50
2019-06-07T04:24:12.704Z,22.50
2019-06-07T04:25:12.941Z,22.50
2019-06-07T04:26:12.770Z,22.50
2019-06-07T04:27:12.697Z,22.50
2019-06-07T04:28:12.755Z,22.50
2019-06-07T04:30:12.812Z,22.50
2019-06-07T04:31:12.786Z,22.50
2019-06-07T04:32:12.881Z,22.50
2019-06-07T04:34:12.943Z,22.50
2019-06-07T04:35:12.986Z,22.50
2019-06-07T04:36:13.010Z,22.50
2019-06-07T04:37:13.045Z,22.50
2019-06-07T04:38:13.075Z,22.50
2019-06-07T04:39:13.176Z,22.50
2019-06-07T04:40:13.144Z,22.50
2019-06-07T04:42:13.215Z,22.50
2019-06-07T04:43:13.549Z,22.50
2019-06-07T04:44:13.278Z,22.50
2019-06-07T04:45:32.440Z,22.50
2019-06-07T04:46:13.349Z,22.50
2019-06-07T04:47:13.379Z,22.50
2019-06-07T04:48:13.416Z,22.50
2019-06-07T04:49:13.454Z,28.13
2019-06-07T04:50:13.785Z,28.13
2019-06-07T04:51:13.538Z,22.50
2019-06-07T04:52:13.554Z,28.13
2019-06-07T04:53:13.588Z,28.13
2019-06-07T04:56:13.691Z,28.13
2019-06-07T04:57:13.724Z,28.13
2019-06-07T04:58:13.927Z,28.13
2019-06-07T04:59:13.805Z,28.13
2019-06-07T05:00:46.600Z,28.13
2019-06-07T05:01:26.881Z,28.13
2019-06-07T05:02:13.996Z,33.75
2019-06-07T05:03:14.227Z,33.75
2019-06-07T05:04:13.973Z,33.75
2019-06-07T05:05:13.998Z,33.75
2019-06-07T05:06:14.161Z,33.75
2019-06-07T05:07:14.061Z,33.75
2019-06-07T05:09:14.129Z,33.75
2019-06-07T05:10:14.494Z,33.75
2019-06-07T05:11:14.199Z,33.75
2019-06-07T05:13:14.314Z,33.75
2019-06-07T05:14:14.318Z,33.75
2019-06-07T05:15:14.398Z,33.75
2019-06-07T05:16:14.473Z,33.75
2019-06-07T05:17:14.402Z,33.75
2019-06-07T05:19:14.473Z,33.75
2019-06-07T05:20:16.039Z,33.75
2019-06-07T05:21:14.551Z,33.75
2019-06-07T05:22:14.905Z,33.75
2019-06-07T05:24:14.652Z,33.75
2019-06-07T05:25:14.712Z,33.75
2019-06-07T05:26:14.722Z,39.38
2019-06-07T05:27:14.749Z,39.38
2019-06-07T05:28:14.785Z,39.38
2019-06-07T05:29:14.825Z,39.38
2019-06-07T05:30:51.002Z,39.38
2019-06-07T05:31:14.891Z,39.38
2019-06-07T05:32:14.948Z,39.38
2019-06-07T05:33:14.944Z,39.38
2019-06-07T05:34:15.014Z,39.38
2019-06-07T05:35:15.314Z,39.38
2019-06-07T05:36:15.060Z,39.38
2019-06-07T05:37:15.099Z,39.38
2019-06-07T05:39:15.172Z,39.38
2019-06-07T05:40:15.183Z,39.38
2019-06-07T05:41:15.225Z,39.38
2019-06-07T05:42:15.559Z,39.38
2019-06-07T05:43:15.294Z,39.38
2019-06-07T05:44:15.397Z,39.38
2019-06-07T05:45:15.359Z,39.38
2019-06-07T05:46:15.413Z,39.38
2019-06-07T05:47:15.458Z,39.38
2019-06-07T05:48:15.589Z,39.38
2019-06-07T05:49:15.802Z,39.38
2019-06-07T05:50:38.379Z,39.38
2019-06-07T05:51:15.664Z,39.38
2019-06-07T05:52:15.600Z,39.38
2019-06-07T05:53:15.717Z,39.38
2019-06-07T05:54:15.683Z,45.00
2019-06-07T05:55:15.709Z,45.00
2019-06-07T05:56:16.490Z,45.00
2019-06-07T05:57:15.774Z,45.00
2019-06-07T05:58:15.821Z,45.00
2019-06-07T05:59:16.035Z,45.00
2019-06-07T06:00:15.873Z,45.00
2019-06-07T06:01:47.961Z,45.00
2019-06-07T06:02:22.512Z,45.00
2019-06-07T06:03:15.976Z,50.63
2019-06-07T06:04:16.010Z,50.63
2019-06-07T06:05:32.691Z,50.63
2019-06-07T06:06:16.089Z,50.63
2019-06-07T06:07:16.414Z,56.25
2019-06-07T06:08:16.146Z,56.25
2019-06-07T06:09:16.491Z,56.25
2019-06-07T06:10:16.216Z,56.25
2019-06-07T06:11:16.353Z,56.25
2019-06-07T06:13:16.334Z,56.25
2019-06-07T06:14:16.356Z,56.25
2019-06-07T06:15:16.737Z,61.88
2019-06-07T06:16:16.423Z,61.88
2019-06-07T06:17:16.477Z,56.25
2019-06-07T06:18:16.509Z,56.25
2019-06-07T06:19:16.857Z,56.25
2019-06-07T06:21:19.983Z,56.25
2019-06-07T06:22:16.925Z,50.63
2019-06-07T06:23:16.662Z,50.63
2019-06-07T06:24:16.694Z,50.63
2019-06-07T06:25:31.724Z,50.63
2019-06-07T06:26:16.771Z,50.63
2019-06-07T06:28:02.101Z,50.63
2019-06-07T06:28:17.138Z,50.63
2019-06-07T06:29:16.869Z,50.63
2019-06-07T06:30:16.903Z,45.00
2019-06-07T06:31:16.942Z,45.00
2019-06-07T06:32:41.104Z,45.00
2019-06-07T06:33:32.919Z,45.00
2019-06-07T06:34:17.061Z,50.63
2019-06-07T06:36:17.133Z,50.63
2019-06-07T06:37:17.146Z,50.63
2019-06-07T06:38:17.198Z,50.63
2019-06-07T06:39:17.262Z,45.00
2019-06-07T06:40:17.593Z,50.63
2019-06-07T06:41:17.296Z,50.63
2019-06-07T06:42:17.319Z,50.63
2019-06-07T06:43:17.364Z,50.63
2019-06-07T06:44:17.402Z,50.63
2019-06-07T06:45:17.434Z,50.63
2019-06-07T06:46:37.549Z,56.25
2019-06-07T06:47:17.809Z,56.25
2019-06-07T06:48:17.588Z,56.25
2019-06-07T06:49:17.572Z,56.25
2019-06-07T06:50:17.620Z,61.88
2019-06-07T06:51:17.643Z,61.88
2019-06-07T06:52:17.680Z,67.50
2019-06-07T06:53:17.724Z,67.50
2019-06-07T06:54:39.419Z,67.50
2019-06-07T06:55:17.782Z,61.88
2019-06-07T06:56:18.118Z,61.88
2019-06-07T06:58:17.887Z,67.50
2019-06-07T07:00:17.958Z,67.50
2019-06-07T07:01:17.990Z,67.50
2019-06-07T07:02:18.033Z,73.13
2019-06-07T07:03:55.948Z,67.50
2019-06-07T07:04:18.094Z,67.50
2019-06-07T07:05:18.130Z,73.13
2019-06-07T07:06:26.082Z,67.50
2019-06-07T07:07:18.200Z,67.50
2019-06-07T07:08:18.240Z,67.50
2019-06-07T07:09:18.288Z,61.88
2019-06-07T07:10:18.317Z,56.25
2019-06-07T07:11:23.349Z,56.25
2019-06-07T07:12:18.708Z,56.25
2019-06-07T07:13:18.508Z,56.25
2019-06-07T07:14:18.473Z,56.25
2019-06-07T07:15:18.491Z,50.63
2019-06-07T07:16:18.515Z,56.25
2019-06-07T07:17:18.619Z,56.25
2019-06-07T07:18:18.885Z,50.63
2019-06-07T07:19:18.629Z,50.63
2019-06-07T07:20:18.677Z,50.63
2019-06-07T07:21:18.697Z,50.63
2019-06-07T07:22:18.744Z,50.63
2019-06-07T07:23:18.817Z,50.63
2019-06-07T07:24:21.974Z,50.63
2019-06-07T07:25:19.135Z,50.63
2019-06-07T07:26:19.025Z,50.63
2019-06-07T07:27:18.900Z,50.63
2019-06-07T07:28:18.942Z,45.00
2019-06-07T07:29:18.988Z,45.00
2019-06-07T07:31:19.053Z,45.00
2019-06-07T07:32:19.078Z,45.00
2019-06-07T07:33:19.126Z,45.00
2019-06-07T07:34:33.972Z,45.00
2019-06-07T07:35:19.189Z,45.00
2019-06-07T07:36:38.190Z,45.00
2019-06-07T07:37:19.361Z,45.00
2019-06-07T07:38:19.620Z,50.63
2019-06-07T07:39:19.333Z,45.00
2019-06-07T07:40:56.302Z,50.63
2019-06-07T07:41:19.425Z,50.63
2019-06-07T07:42:21.629Z,50.63
2019-06-07T07:43:19.530Z,50.63
2019-06-07T07:44:19.514Z,50.63
2019-06-07T07:45:19.859Z,50.63
2019-06-07T07:46:28.942Z,45.00
2019-06-07T07:47:19.715Z,45.00
2019-06-07T07:49:19.688Z,45.00
2019-06-07T07:50:19.719Z,45.00
2019-06-07T07:51:19.755Z,45.00
2019-06-07T07:52:19.796Z,45.00
2019-06-07T07:53:19.929Z,45.00
2019-06-07T07:54:19.880Z,45.00
2019-06-07T07:55:19.983Z,45.00
2019-06-07T07:56:19.930Z,45.00
2019-06-07T07:57:19.970Z,45.00
2019-06-07T07:58:20.070Z,50.63
2019-06-07T07:59:20.142Z,45.00
2019-06-07T08:00:50.240Z,45.00
2019-06-07T08:01:20.485Z,45.00
2019-06-07T08:02:20.154Z,45.00
2019-06-07T08:03:20.197Z,50.63
2019-06-07T08:04:39.838Z,45.00
2019-06-07T08:05:29.030Z,45.00
2019-06-07T08:06:20.281Z,45.00
2019-06-07T08:07:20.330Z,45.00
2019-06-07T08:08:20.356Z,45.00
2019-06-07T08:09:20.398Z,45.00
2019-06-07T08:10:20.441Z,45.00
2019-06-07T08:11:20.478Z,45.00
2019-06-07T08:12:20.494Z,45.00
2019-06-07T08:13:25.853Z,45.00
2019-06-07T08:14:20.574Z,45.00
2019-06-07T08:15:20.619Z,45.00
2019-06-07T08:16:21.010Z,45.00
2019-06-07T08:17:20.676Z,50.63
2019-06-07T08:18:20.809Z,50.63
2019-06-07T08:19:20.749Z,50.63
2019-06-07T08:20:20.784Z,50.63
2019-06-07T08:21:26.399Z,56.25
2019-06-07T08:22:20.867Z,56.25
2019-06-07T08:23:21.193Z,56.25
2019-06-07T08:24:20.938Z,56.25
2019-06-07T08:25:20.960Z,56.25
2019-06-07T08:26:21.012Z,56.25
2019-06-07T08:27:26.518Z,56.25
2019-06-07T08:28:21.084Z,56.25
2019-06-07T08:29:21.113Z,56.25
2019-06-07T08:30:47.823Z,56.25
2019-06-07T08:31:21.178Z,56.25
2019-06-07T08:33:26.478Z,56.25
2019-06-07T08:36:03.211Z,50.63
2019-06-07T08:36:40.395Z,50.63
2019-06-07T08:37:21.404Z,50.63
2019-06-07T08:38:27.606Z,50.63
2019-06-07T08:39:21.462Z,50.63
2019-06-07T08:40:21.565Z,50.63
2019-06-07T08:41:21.633Z,50.63
2019-06-07T08:42:36.019Z,50.63
2019-06-07T08:43:21.900Z,50.63
2019-06-07T08:44:25.526Z,50.63
2019-06-07T08:45:21.675Z,50.63
2019-06-07T08:46:21.711Z,50.63
2019-06-07T08:47:21.758Z,50.63
2019-06-07T08:48:27.744Z,50.63
2019-06-07T08:49:21.925Z,50.63
2019-06-07T08:51:21.894Z,50.63
2019-06-07T08:52:22.341Z,50.63
2019-06-07T08:53:21.969Z,50.63
2019-06-07T08:54:23.192Z,50.63
2019-06-07T08:55:22.036Z,50.63
2019-06-07T08:56:22.073Z,45.00
2019-06-07T08:57:22.414Z,50.63
2019-06-07T08:58:22.140Z,50.63
2019-06-07T09:01:22.252Z,50.63
2019-06-07T09:02:24.102Z,50.63
2019-06-07T09:03:22.614Z,50.63
2019-06-07T09:04:22.649Z,50.63
2019-06-07T09:05:22.387Z,50.63
2019-06-07T09:07:22.496Z,50.63
2019-06-07T09:08:29.732Z,50.63
2019-06-07T09:09:22.850Z,50.63
2019-06-07T09:10:22.579Z,50.63
2019-06-07T09:11:22.602Z,50.63
2019-06-07T09:12:22.637Z,50.63
2019-06-07T09:13:22.799Z,50.63
2019-06-07T09:14:22.711Z,50.63
2019-06-07T09:15:24.297Z,50.63
2019-06-07T09:16:22.802Z,50.63
2019-06-07T09:17:22.824Z,50.63
2019-06-07T09:18:41.354Z,50.63
2019-06-07T09:19:22.893Z,50.63
2019-06-07T09:20:36.413Z,50.63
2019-06-07T09:21:22.958Z,50.63
2019-06-07T09:22:23.001Z,50.63
2019-06-07T09:23:23.035Z,50.63
2019-06-07T09:25:23.110Z,56.25
2019-06-07T09:26:23.143Z,56.25
2019-06-07T09:27:23.185Z,61.88
2019-06-07T09:28:23.519Z,61.88
2019-06-07T09:29:23.249Z,61.88
2019-06-07T09:30:23.286Z,61.88
2019-06-07T09:31:23.337Z,56.25
2019-06-07T09:32:23.360Z,56.25
2019-06-07T09:33:23.393Z,50.63
2019-06-07T09:34:23.559Z,50.63
2019-06-07T09:35:23.776Z,50.63
2019-06-07T09:36:23.507Z,50.63
2019-06-07T09:38:03.573Z,50.63
2019-06-07T09:38:25.981Z,50.63
2019-06-07T09:39:23.612Z,50.63
2019-06-07T09:40:27.579Z,50.63
2019-06-07T09:41:42.650Z,50.63
2019-06-07T09:42:24.045Z,50.63
2019-06-07T09:44:26.191Z,50.63
2019-06-07T09:45:23.826Z,50.63
2019-06-07T09:46:23.869Z,50.63
2019-06-07T09:49:09.116Z,50.63
2019-06-07T09:49:31.879Z,50.63
2019-06-07T09:50:24.014Z,50.63
2019-06-07T09:51:24.046Z,50.63
2019-06-07T09:52:24.080Z,50.63
2019-06-07T09:53:24.139Z,50.63
2019-06-07T09:55:03.313Z,50.63
2019-06-07T09:55:25.302Z,50.63
2019-06-07T09:56:24.320Z,50.63
2019-06-07T09:57:24.261Z,50.63
2019-06-07T09:58:51.026Z,50.63
2019-06-07T09:59:24.346Z,50.63
2019-06-07T10:00:42.340Z,50.63
2019-06-07T10:01:24.397Z,50.63
2019-06-07T10:02:24.433Z,50.63
2019-06-07T10:03:24.569Z,50.63
2019-06-07T10:04:31.266Z,50.63
2019-06-07T10:05:24.562Z,56.25
2019-06-07T10:06:24.580Z,50.63
2019-06-07T10:07:31.703Z,56.25
2019-06-07T10:09:42.472Z,56.25
2019-06-07T10:10:38.812Z,61.88
2019-06-07T10:11:24.773Z,56.25
2019-06-07T10:12:24.808Z,56.25
2019-06-07T10:13:25.141Z,56.25
2019-06-07T10:14:24.879Z,56.25
2019-06-07T10:15:24.919Z,56.25
2019-06-07T10:16:24.942Z,56.25
2019-06-07T10:18:25.014Z,56.25
2019-06-07T10:19:25.122Z,56.25
2019-06-07T10:20:25.396Z,56.25
2019-06-07T10:21:25.126Z,56.25
2019-06-07T10:22:25.163Z,56.25
2019-06-07T10:23:25.284Z,56.25
2019-06-07T10:24:25.234Z,56.25
2019-06-07T10:25:25.295Z,56.25
2019-06-07T10:26:25.306Z,56.25
2019-06-07T10:27:25.644Z,56.25
2019-06-07T10:28:25.381Z,56.25
2019-06-07T10:29:25.413Z,56.25
2019-06-07T10:30:26.129Z,56.25
2019-06-07T10:31:25.504Z,56.25
2019-06-07T10:33:27.208Z,56.25
2019-06-07T10:34:26.313Z,56.25
2019-06-07T10:35:25.868Z,56.25
2019-06-07T10:36:25.674Z,56.25
2019-06-07T10:38:25.742Z,56.25
2019-06-07T10:39:25.775Z,61.88
2019-06-07T10:40:25.809Z,61.88
2019-06-07T10:41:26.246Z,61.88
2019-06-07T10:42:25.991Z,61.88
2019-06-07T10:43:25.922Z,61.88
2019-06-07T10:44:26.061Z,61.88
2019-06-07T10:45:25.994Z,61.88
2019-06-07T10:46:26.032Z,61.88
2019-06-07T10:47:26.300Z,67.50
2019-06-07T10:48:26.107Z,61.88
2019-06-07T10:49:26.151Z,61.88
2019-06-07T10:50:26.278Z,61.88
2019-06-07T10:51:26.246Z,61.88
2019-06-07T10:52:26.246Z,61.88
2019-06-07T10:53:26.285Z,61.88
2019-06-07T10:54:30.569Z,61.88
2019-06-07T10:55:26.363Z,67.50
2019-06-07T10:59:11.897Z,67.50
2019-06-07T11:00:11.686Z,67.50
2019-06-07T11:01:12.842Z,67.50
2019-06-07T11:02:11.918Z,67.50
2019-06-07T11:03:11.845Z,67.50
2019-06-07T11:04:11.737Z,73.13
2019-06-07T11:05:12.301Z,73.13
2019-06-07T11:06:12.148Z,73.13
2019-06-07T11:07:12.073Z,73.13
2019-06-07T11:08:13.085Z,73.13
2019-06-07T11:09:12.049Z,73.13
2019-06-07T11:10:16.784Z,73.13
2019-06-07T11:11:12.279Z,73.13
2019-06-07T11:12:12.509Z,73.13
2019-06-07T11:13:18.066Z,73.13
2019-06-07T11:14:12.716Z,73.13
2019-06-07T11:15:12.955Z,67.50
2019-06-07T11:17:56.435Z,73.13
2019-06-07T11:18:56.480Z,73.13
2019-06-07T11:19:56.519Z,73.13
2019-06-07T11:20:56.553Z,73.13
2019-06-07T11:21:56.585Z,73.13
2019-06-07T11:22:56.572Z,73.13
2019-06-07T11:23:56.930Z,73.13
2019-06-07T11:24:56.696Z,73.13
2019-06-07T11:25:56.795Z,73.13
2019-06-07T11:27:56.778Z,78.75
2019-06-07T11:28:56.846Z,78.75
2019-06-07T11:29:57.181Z,78.75
2019-06-07T11:30:56.912Z,78.75
2019-06-07T11:31:56.953Z,84.38
2019-06-07T11:32:56.992Z,84.38
2019-06-07T11:33:57.025Z,84.38
2019-06-07T11:34:57.148Z,90.00
2019-06-07T11:35:57.415Z,90.00
2019-06-07T11:36:57.144Z,95.63
2019-06-07T11:38:57.222Z,95.63
2019-06-07T11:39:57.264Z,101.25
2019-06-07T11:40:57.287Z,101.25
2019-06-07T11:42:37.490Z,106.88
2019-06-07T11:44:56.335Z,112.50
2019-06-07T11:44:57.514Z,123.75
2019-06-07T11:45:57.468Z,129.38
2019-06-07T11:46:57.518Z,140.63
2019-06-07T11:47:59.870Z,151.88
2019-06-07T11:49:57.616Z,163.13
2019-06-07T11:50:57.667Z,168.75
2019-06-07T11:51:57.696Z,168.75
2019-06-07T11:52:57.728Z,174.38
2019-06-07T11:53:57.756Z,168.75
2019-06-07T11:54:59.158Z,168.75
2019-06-07T11:55:57.842Z,174.38
2019-06-07T11:56:57.901Z,185.63
2019-06-07T11:57:57.913Z,191.25
2019-06-07T11:58:57.963Z,185.63
2019-06-07T11:59:57.982Z,191.25
2019-06-07T12:00:58.366Z,180.00
2019-06-07T12:01:58.062Z,174.38
2019-06-07T12:02:58.094Z,168.75
2019-06-07T12:03:58.927Z,174.38
2019-06-07T12:05:58.224Z,191.25
2019-06-07T12:06:58.603Z,180.00
2019-06-07T12:07:58.281Z,168.75
2019-06-07T12:08:58.319Z,157.50
2019-06-07T12:10:58.386Z,146.25
2019-06-07T12:11:58.426Z,146.25
2019-06-07T12:12:58.782Z,135.00
2019-06-07T12:13:58.520Z,135.00
2019-06-07T12:14:58.540Z,135.00
2019-06-07T12:15:58.577Z,146.25
2019-06-07T12:17:58.657Z,168.75
2019-06-07T12:18:58.688Z,163.13
2019-06-07T12:19:59.117Z,157.50
2019-06-07T12:20:58.789Z,157.50
2019-06-07T12:21:58.838Z,146.25
2019-06-07T12:22:58.999Z,146.25
2019-06-07T12:23:58.944Z,146.25
2019-06-07T12:24:58.921Z,146.25
2019-06-07T12:25:58.984Z,146.25
2019-06-07T12:26:59.357Z,135.00
2019-06-07T12:27:59.149Z,123.75
2019-06-07T12:28:59.124Z,118.13
2019-06-07T12:29:59.144Z,118.13
2019-06-07T12:30:59.166Z,118.13
2019-06-07T12:31:59.193Z,118.13
2019-06-07T12:32:59.256Z,118.13
2019-06-07T12:34:59.603Z,106.88
2019-06-07T12:35:59.350Z,118.13
2019-06-07T12:36:59.416Z,123.75
2019-06-07T12:37:59.419Z,123.75
2019-06-07T12:38:59.461Z,129.38
2019-06-07T12:39:59.533Z,123.75
2019-06-07T12:40:59.523Z,129.38
2019-06-07T12:41:59.881Z,129.38
2019-06-07T12:42:59.646Z,129.38
2019-06-07T12:43:59.670Z,135.00
2019-06-07T12:44:59.673Z,135.00
2019-06-07T12:45:59.709Z,140.63
2019-06-07T12:46:59.764Z,146.25
2019-06-07T12:47:59.795Z,151.88
2019-06-07T12:49:00.199Z,157.50
2019-06-07T12:49:59.872Z,163.13
2019-06-07T12:50:59.904Z,174.38
2019-06-07T12:51:59.927Z,180.00
2019-06-07T12:53:00.047Z,191.25
2019-06-07T12:54:00.018Z,202.50
2019-06-07T12:55:00.042Z,253.13
2019-06-07T12:56:00.515Z,343.13
2019-06-07T12:57:00.149Z,382.50
2019-06-07T12:58:00.165Z,399.38
2019-06-07T12:59:00.219Z,444.38
2019-06-07T13:00:00.253Z,466.88
2019-06-07T13:01:00.308Z,495.00
2019-06-07T13:02:02.457Z,495.00
2019-06-07T13:03:00.731Z,213.75
2019-06-07T13:04:00.418Z,500.63
2019-06-07T13:05:04.535Z,202.50
2019-06-07T13:06:00.505Z,213.75
2019-06-07T13:07:00.515Z,213.75
2019-06-07T13:08:00.551Z,219.38
2019-06-07T13:09:00.622Z,219.38
2019-06-07T13:10:00.988Z,742.50
2019-06-07T13:11:14.277Z,472.50
2019-06-07T13:12:00.715Z,253.13
2019-06-07T13:13:00.757Z,258.75
2019-06-07T13:14:00.784Z,686.25
2019-06-07T13:15:00.814Z,821.25
2019-06-07T13:16:00.843Z,798.75
2019-06-07T13:17:00.890Z,781.88
2019-06-07T13:18:00.931Z,551.25
2019-06-07T13:19:00.962Z,168.75
2019-06-07T13:20:01.073Z,163.13
2019-06-07T13:21:01.048Z,928.13
2019-06-07T13:22:01.100Z,916.88
2019-06-07T13:23:01.509Z,888.75
2019-06-07T13:24:01.174Z,928.13
2019-06-07T13:25:01.304Z,945.00
2019-06-07T13:26:01.437Z,905.63
2019-06-07T13:27:01.662Z,978.75
2019-06-07T13:28:01.389Z,990.00
2019-06-07T13:29:01.754Z,945.00
2019-06-07T13:30:09.187Z,984.38
2019-06-07T13:31:01.561Z,1001.25
2019-06-07T13:32:01.496Z,961.88
2019-06-07T13:33:02.949Z,961.88
2019-06-07T13:34:01.616Z,956.25
2019-06-07T13:35:01.634Z,1018.13
2019-06-07T13:36:02.015Z,1080.00
2019-06-07T13:37:01.674Z,1057.50
2019-06-07T13:38:02.135Z,315.00
2019-06-07T13:39:01.758Z,360.00
2019-06-07T13:40:02.026Z,585.00
2019-06-07T13:42:01.950Z,348.75
2019-06-07T13:43:05.688Z,1321.88
2019-06-07T13:44:02.077Z,337.50
2019-06-07T13:46:02.118Z,1237.50
2019-06-07T13:47:02.119Z,1175.63
2019-06-07T13:48:02.198Z,1153.13
2019-06-07T13:49:02.479Z,1158.75
2019-06-07T13:50:02.220Z,900.00
2019-06-07T13:51:02.264Z,523.13
2019-06-07T13:52:02.355Z,1175.63